21 Aug 2018 01:50 UTC 2018233+01:50 UTC

Overview Datums Bench Marks Data Query Site Visit Daily QC Messages Attributes

171: National Park Service - Bird Island

27° 29' 4" N   97° 19' 5" W
NPSBI
United States National Park Service United States National Park Service

Station Information

National Park Service - Bird Island
National Park Service - Bird Island
more pictures
 
Station Name:National Park Service - Bird Island
DNR ID:171
Location:27° 29' 4" N, 97° 19' 5" W

Water Level Forecasts

Latest Observations

Series Metric English Marine Observed at
Water Temperature 31.2 °C 88.2 °F 88.2 °F Aug 20 20:42 CDT
00h07m ago
Salinity 33.300 psu 33.300 psu 33.300 psu Aug 20 20:42 CDT
00h07m ago
pH 8.31 pH 8.31 pH 8.31 pH Aug 20 20:42 CDT
00h07m ago
Turbidity 2 ntu 2 ntu 2 ntu Aug 20 20:42 CDT
00h07m ago
Dissolved Oxygen 3.88 mg/L 0.000242 lb/ft3 0.000242 lb/ft3 Aug 20 20:42 CDT
00h07m ago

Maps

National Park Service - Bird Island
All Stations in Area
Entire Network
 

Recent Observations

Date/Time Water
Temp (°F)
Sal (psu) pH (pH) Turb (ntu) DO (lb/ft3)
Aug 20 20:00 CDT 88.2 33.200 8.31 1 0.000255
Aug 20 19:00 CDT 89.2 33.300 8.34 1 0.000303
Aug 20 18:00 CDT 90.1 33.200 8.32 1 0.000322
Aug 20 17:00 CDT 90.1 33.200 8.30 1 0.000331
Aug 20 16:00 CDT 89.8 33.200 8.27 1 0.000322
Aug 20 15:00 CDT 89.1 33.200 8.23 1 0.000302
Aug 20 14:00 CDT 88.3 33.200 8.21 1 0.000285
Aug 20 13:00 CDT 87.4 33.200 8.16 1 0.000217
Aug 20 12:00 CDT 86.4 33.200 8.13 1 0.000180
Aug 20 11:00 CDT 85.3 33.200 8.12 1 0.000147
Aug 20 10:00 CDT 84.6 33.200 8.11 1 0.000130
Aug 20 09:00 CDT 84.2 33.200 8.10 2 0.000102
Aug 20 08:00 CDT 84.2 33.200 8.10 2 0.000094
Aug 20 07:00 CDT 84.4 33.200 8.12 3 0.000108
Aug 20 06:00 CDT 84.4 33.200 8.14 2 0.000117
Aug 20 05:00 CDT 84.6 33.200 8.16 2 0.000125
Aug 20 04:00 CDT 84.7 33.200 8.17 2 0.000129
Aug 20 03:00 CDT 85.1 33.200 8.19 2 0.000137
Aug 20 02:00 CDT 85.3 33.200 8.22 2 0.000154
Aug 20 01:00 CDT 85.6 33.200 8.24 1 0.000169
Aug 20 00:00 CDT 86.0 33.100 8.25 1 0.000174
Aug 19 23:00 CDT 86.5 33.100 8.27 2 0.000197
Aug 19 22:00 CDT 87.1 33.100 8.28 2 0.000218
Aug 19 21:00 CDT 87.8 33.000 8.30 2 0.000242
Aug 19 20:00 CDT 88.5 33.000 8.31 1 0.000271

Historical Data Availability